Abingdon, VA

11:56 PM EST on February 06, 2016 (GMT -0500)
Virginia Highlands

Weather History for KVJI - January, 2012

Change the Weather History Date:

Thursday, January 5, 2012

  Actual Average (KTRI) Record (KTRI)
Temperature  
Mean Temperature 38 °F 35 °F  
Max Temperature 46 °F 45 °F 74 °F (1950)
Min Temperature 30 °F 25 °F -6 °F (1969)
Degree Days  
Heating Degree Days 27 30  
Month to date heating degree days 150  
Since 1 July heating degree days 1879  
Cooling Degree Days 0 0  
Month to date cooling degree days 0  
Year to date cooling degree days 0  
Moisture  
Dew Point 20 °F    
Average Humidity 50    
Maximum Humidity 70    
Minimum Humidity 32    
Precipitation  
Precipitation 0.00 in 0.11 in 1.40 in (2004)
Month to date precipitation 0.52  
Year to date precipitation 0.52  
Snow  
Snow 0.00 in 0.20 in - ()
Month to date snowfall 0.7  
Since 1 July snowfall 3.4  
Snow Depth -    
Sea Level Pressure  
Sea Level Pressure 30.09 in    
Wind  
Wind Speed 7 mph (West)    
Max Wind Speed 13 mph    
Max Gust Speed 17 mph    
Visibility 10 miles    
Events      
T = Trace of Precipitation, MM = Missing Value Source: NWS Daily Summary

Daily Weather History Graph

Daily Weather History Graph

Search for Another Location

Airport or City:

Trip Planner

Search our weather history database for the weather conditions in past years. The results will help you decide how hot, cold, wet, or windy it might be!

Date:

Astronomy

Jan. 05, 2012 Rise Set
Actual Time 7:40 AM EST 5:25 PM EST
Civil Twilight 7:12 AM EST 5:54 PM EST
Nautical Twilight 6:40 AM EST 6:26 PM EST
Astronomical Twilight 6:08 AM EST 6:58 PM EST
Moon 2:28 PM EST (1/5) 4:25 AM EST (1/5)
Length of Visible Light 10h 42m
Length of Day
9h 44m
Waxing Gibbous, 87% of the Moon is Illuminated
Jan 5
Waxing Gibbous
Jan 9
Full
Jan 16
Last Quarter
Jan 23
New
Jan 30
First Quarter

Hourly Weather History & Observations

Time (EST) Temp. Windchill Dew Point Humidity Pressure Visibility Wind Dir Wind Speed Gust Speed Precip Events Conditions
12:15 AM 32.0 °F 26.4 °F 14.0 °F 48% 30.08 in 10.0 mi West 5.8 mph - N/A   Clear
12:35 AM 33.8 °F 27.7 °F 14.0 °F 44% 30.07 in 10.0 mi West 6.9 mph - N/A   Clear
12:55 AM 33.8 °F 28.6 °F 14.0 °F 44% 30.07 in 10.0 mi West 5.8 mph - N/A   Clear
1:15 AM 33.8 °F 27.7 °F 15.8 °F 48% 30.07 in 10.0 mi West 6.9 mph - N/A   Clear
1:35 AM 33.8 °F 27.7 °F 15.8 °F 48% 30.06 in 10.0 mi West 6.9 mph - N/A   Clear
1:55 AM 33.8 °F 27.7 °F 15.8 °F 48% 30.06 in 10.0 mi West 6.9 mph - N/A   Clear
2:15 AM 33.8 °F 27.7 °F 17.6 °F 52% 30.06 in 10.0 mi West 6.9 mph - N/A   Clear
2:35 AM 33.8 °F 27.7 °F 17.6 °F 52% 30.07 in 10.0 mi West 6.9 mph - N/A   Clear
2:55 AM 33.8 °F 26.4 °F 17.6 °F 52% 30.06 in 10.0 mi West 9.2 mph - N/A   Scattered Clouds
3:15 AM 33.8 °F 27.0 °F 17.6 °F 52% 30.05 in 10.0 mi West 8.1 mph - N/A   Mostly Cloudy
3:35 AM 33.8 °F 27.7 °F 17.6 °F 52% 30.06 in 10.0 mi West 6.9 mph - N/A   Overcast
3:55 AM 33.8 °F 28.6 °F 17.6 °F 52% 30.06 in 10.0 mi West 5.8 mph - N/A   Mostly Cloudy
4:15 AM 33.8 °F 27.7 °F 19.4 °F 56% 30.06 in 10.0 mi West 6.9 mph - N/A   Scattered Clouds
4:35 AM 32.0 °F 24.8 °F 19.4 °F 60% 30.06 in 10.0 mi West 8.1 mph - N/A   Clear
4:55 AM 32.0 °F 26.4 °F 19.4 °F 60% 30.07 in 10.0 mi West 5.8 mph - N/A   Clear
5:15 AM 32.0 °F 26.4 °F 19.4 °F 60% 30.07 in 10.0 mi West 5.8 mph - N/A   Clear
5:35 AM 32.0 °F 25.6 °F 21.2 °F 64% 30.07 in 10.0 mi West 6.9 mph - N/A   Clear
5:55 AM 32.0 °F 25.6 °F 21.2 °F 64% 30.07 in 10.0 mi West 6.9 mph - N/A   Mostly Cloudy
6:15 AM 32.0 °F 25.6 °F 19.4 °F 60% 30.07 in 10.0 mi West 6.9 mph - N/A   Scattered Clouds
6:35 AM 32.0 °F 25.6 °F 19.4 °F 60% 30.08 in 10.0 mi West 6.9 mph - N/A   Clear
6:55 AM 32.0 °F 24.8 °F 21.2 °F 64% 30.09 in 10.0 mi West 8.1 mph - N/A   Clear
7:15 AM 32.0 °F 25.6 °F 21.2 °F 64% 30.09 in 10.0 mi West 6.9 mph - N/A   Clear
7:35 AM 32.0 °F 26.4 °F 21.2 °F 64% 30.10 in 10.0 mi West 5.8 mph - N/A   Clear
7:55 AM 30.2 °F 23.4 °F 21.2 °F 69% 30.10 in 10.0 mi West 6.9 mph - N/A   Clear
8:15 AM 32.0 °F 27.5 °F 21.2 °F 64% 30.11 in 10.0 mi West 4.6 mph - N/A   Clear
8:55 AM 32.0 °F 24.8 °F 23.0 °F 69% 30.12 in 10.0 mi West 8.1 mph - N/A   Clear
9:15 AM 33.8 °F 27.7 °F 24.8 °F 70% 30.13 in 10.0 mi West 6.9 mph - N/A   Clear
9:35 AM 33.8 °F 24.8 °F 24.8 °F 70% 30.14 in 10.0 mi West 12.7 mph - N/A   Clear
9:55 AM 35.6 °F 27.5 °F 24.8 °F 65% 30.15 in 10.0 mi West 11.5 mph - N/A   Clear
10:15 AM 35.6 °F 27.1 °F 24.8 °F 65% 30.15 in 10.0 mi West 12.7 mph - N/A   Clear
10:35 AM 37.4 °F 29.8 °F 24.8 °F 60% 30.15 in 10.0 mi West 11.5 mph - N/A   Clear
10:55 AM 37.4 °F 30.3 °F 24.8 °F 60% 30.14 in 10.0 mi West 10.4 mph - N/A   Clear
11:15 AM 39.2 °F 32.5 °F 24.8 °F 56% 30.13 in 10.0 mi West 10.4 mph - N/A   Clear
11:35 AM 41.0 °F 34.7 °F 24.8 °F 53% 30.12 in 10.0 mi West 10.4 mph - N/A   Clear
11:55 AM 41.0 °F 37.1 °F 21.2 °F 45% 30.11 in 10.0 mi WNW 5.8 mph - N/A   Clear
12:15 PM 42.8 °F 37.5 °F 21.2 °F 42% 30.10 in 10.0 mi West 9.2 mph - N/A   Clear
12:35 PM 42.8 °F 38.0 °F 21.2 °F 42% 30.09 in 10.0 mi WSW 8.1 mph - N/A   Clear
12:55 PM 42.8 °F 37.0 °F 21.2 °F 42% 30.09 in 10.0 mi WSW 10.4 mph - N/A   Clear
1:15 PM 44.6 °F 39.2 °F 21.2 °F 39% 30.08 in 10.0 mi West 10.4 mph - N/A   Clear
1:35 PM 44.6 °F 40.7 °F 19.4 °F 37% 30.08 in 10.0 mi West 6.9 mph - N/A   Clear
1:55 PM 44.6 °F 40.2 °F 21.2 °F 39% 30.07 in 10.0 mi West 8.1 mph - N/A   Clear
2:15 PM 46.4 °F 41.1 °F 17.6 °F 32% 30.07 in 10.0 mi West 11.5 mph 17.3 mph N/A   Clear
2:35 PM 44.6 °F 38.4 °F 19.4 °F 37% 30.07 in 10.0 mi West 12.7 mph 17.3 mph N/A   Clear
2:55 PM 46.4 °F 41.5 °F 19.4 °F 34% 30.07 in 10.0 mi West 10.4 mph 17.3 mph N/A   Clear
3:15 PM 46.4 °F 42.4 °F 17.6 °F 32% 30.07 in 10.0 mi West 8.1 mph - N/A   Clear
3:35 PM 46.4 °F 40.7 °F 17.6 °F 32% 30.06 in 10.0 mi West 12.7 mph - N/A   Clear
3:55 PM 46.4 °F 41.1 °F 17.6 °F 32% 30.07 in 10.0 mi West 11.5 mph - N/A   Clear
4:15 PM 46.4 °F 41.1 °F 19.4 °F 34% 30.07 in 10.0 mi West 11.5 mph - N/A   Clear
4:35 PM 46.4 °F 41.9 °F 17.6 °F 32% 30.07 in 10.0 mi West 9.2 mph - N/A   Clear
4:55 PM 44.6 °F 39.7 °F 17.6 °F 34% 30.07 in 10.0 mi West 9.2 mph - N/A   Clear
5:55 PM 41.0 °F 38.0 °F 19.4 °F 42% 30.08 in 10.0 mi West 4.6 mph - N/A   Clear
6:15 PM 41.0 °F 38.0 °F 19.4 °F 42% 30.08 in 10.0 mi West 4.6 mph - N/A   Clear
6:35 PM 41.0 °F 39.0 °F 19.4 °F 42% 30.08 in 10.0 mi West 3.5 mph - N/A   Clear
6:55 PM 41.0 °F 39.0 °F 19.4 °F 42% 30.08 in 10.0 mi West 3.5 mph - N/A   Clear
7:15 PM 37.4 °F - 21.2 °F 52% 30.09 in 10.0 mi Calm Calm - N/A   Clear
7:35 PM 35.6 °F - 21.2 °F 56% 30.09 in 10.0 mi Calm Calm - N/A   Clear
7:55 PM 35.6 °F - 21.2 °F 56% 30.09 in 10.0 mi Calm Calm - N/A   Clear
8:15 PM 35.6 °F - 21.2 °F 56% 30.09 in 10.0 mi Calm Calm - N/A   Clear
8:35 PM 33.8 °F - 21.2 °F 60% 30.09 in 10.0 mi Calm Calm - N/A   Clear
8:55 PM 33.8 °F - 21.2 °F 60% 30.09 in 10.0 mi Calm Calm - N/A   Clear
9:15 PM 32.0 °F - 21.2 °F 64% 30.09 in 10.0 mi Calm Calm - N/A   Clear
9:35 PM 32.0 °F - 21.2 °F 64% 30.09 in 10.0 mi Calm Calm - N/A   Clear
9:55 PM 33.8 °F - 21.2 °F 60% 30.09 in 10.0 mi Calm Calm - N/A   Clear
10:15 PM 33.8 °F - 21.2 °F 60% 30.09 in 10.0 mi Calm Calm - N/A   Clear
10:35 PM 32.0 °F - 21.2 °F 64% 30.09 in 10.0 mi Calm Calm - N/A   Clear
10:55 PM 32.0 °F - 21.2 °F 64% 30.09 in 10.0 mi Calm Calm - N/A   Clear
11:15 PM 32.0 °F - 21.2 °F 64% 30.09 in 10.0 mi Calm Calm - N/A   Clear
11:35 PM 33.8 °F - 19.4 °F 56% 30.08 in 10.0 mi Calm Calm - N/A   Clear
11:55 PM 32.0 °F - 19.4 °F 60% 30.08 in 10.0 mi Calm Calm - N/A   Clear